sensor_id;sensor_type;location;lat;lon;timestamp;temperature;humidity
13229;DHT22;6680;53.220;10.402;2022-08-20T00:02:15;16.70;99.90
13229;DHT22;6680;53.220;10.402;2022-08-20T00:04:42;16.60;99.90
13229;DHT22;6680;53.220;10.402;2022-08-20T00:07:08;16.60;99.90
13229;DHT22;6680;53.220;10.402;2022-08-20T00:09:35;16.60;99.90
13229;DHT22;6680;53.220;10.402;2022-08-20T00:12:03;16.60;99.90
13229;DHT22;6680;53.220;10.402;2022-08-20T00:14:29;16.60;99.90
13229;DHT22;6680;53.220;10.402;2022-08-20T00:16:57;16.60;99.90
13229;DHT22;6680;53.220;10.402;2022-08-20T00:19:25;16.60;99.90
13229;DHT22;6680;53.220;10.402;2022-08-20T00:21:51;16.60;99.90
13229;DHT22;6680;53.220;10.402;2022-08-20T00:24:18;16.60;99.90
13229;DHT22;6680;53.220;10.402;2022-08-20T00:26:45;16.60;99.90
13229;DHT22;6680;53.220;10.402;2022-08-20T00:29:11;16.60;99.90
13229;DHT22;6680;53.220;10.402;2022-08-20T00:31:38;16.60;99.90
13229;DHT22;6680;53.220;10.402;2022-08-20T00:34:05;16.60;99.90
13229;DHT22;6680;53.220;10.402;2022-08-20T00:36:33;16.60;99.90
13229;DHT22;6680;53.220;10.402;2022-08-20T00:38:59;16.50;99.90
13229;DHT22;6680;53.220;10.402;2022-08-20T00:41:27;16.50;99.90
13229;DHT22;6680;53.220;10.402;2022-08-20T00:44:06;16.50;99.90
13229;DHT22;6680;53.220;10.402;2022-08-20T00:46:34;16.50;99.90
13229;DHT22;6680;53.220;10.402;2022-08-20T00:49:01;16.50;99.90
13229;DHT22;6680;53.220;10.402;2022-08-20T00:51:36;16.50;99.90
13229;DHT22;6680;53.220;10.402;2022-08-20T00:54:07;16.60;99.90
13229;DHT22;6680;53.220;10.402;2022-08-20T00:56:36;16.50;99.90
13229;DHT22;6680;53.220;10.402;2022-08-20T00:59:04;16.50;99.90
13229;DHT22;6680;53.220;10.402;2022-08-20T01:01:36;16.50;99.90
13229;DHT22;6680;53.220;10.402;2022-08-20T01:04:03;16.50;99.90
13229;DHT22;6680;53.220;10.402;2022-08-20T01:06:30;16.50;99.90
13229;DHT22;6680;53.220;10.402;2022-08-20T01:08:58;16.50;99.90
13229;DHT22;6680;53.220;10.402;2022-08-20T01:11:27;16.50;99.90
13229;DHT22;6680;53.220;10.402;2022-08-20T01:13:57;16.50;99.90
13229;DHT22;6680;53.220;10.402;2022-08-20T01:16:28;16.50;99.90
13229;DHT22;6680;53.220;10.402;2022-08-20T01:18:56;16.50;99.90
13229;DHT22;6680;53.220;10.402;2022-08-20T01:21:25;16.50;99.90
13229;DHT22;6680;53.220;10.402;2022-08-20T01:24:00;16.50;99.90
13229;DHT22;6680;53.220;10.402;2022-08-20T01:26:33;16.60;99.90
13229;DHT22;6680;53.220;10.402;2022-08-20T01:29:05;16.60;99.90
13229;DHT22;6680;53.220;10.402;2022-08-20T01:31:35;16.70;99.90
13229;DHT22;6680;53.220;10.402;2022-08-20T01:34:04;16.80;99.90
13229;DHT22;6680;53.220;10.402;2022-08-20T01:36:35;16.80;99.90
13229;DHT22;6680;53.220;10.402;2022-08-20T01:39:05;16.90;99.90
13229;DHT22;6680;53.220;10.402;2022-08-20T01:41:51;16.90;99.90
13229;DHT22;6680;53.220;10.402;2022-08-20T01:44:21;17.00;99.90
13229;DHT22;6680;53.220;10.402;2022-08-20T01:46:50;17.00;99.90
13229;DHT22;6680;53.220;10.402;2022-08-20T01:49:23;17.00;99.90
13229;DHT22;6680;53.220;10.402;2022-08-20T01:51:51;17.00;99.90
13229;DHT22;6680;53.220;10.402;2022-08-20T01:54:19;17.10;99.90
13229;DHT22;6680;53.220;10.402;2022-08-20T01:56:53;17.10;99.90
13229;DHT22;6680;53.220;10.402;2022-08-20T01:59:21;17.10;99.90
13229;DHT22;6680;53.220;10.402;2022-08-20T02:01:48;17.10;99.90
13229;DHT22;6680;53.220;10.402;2022-08-20T02:04:15;17.20;99.90
13229;DHT22;6680;53.220;10.402;2022-08-20T02:06:45;17.20;99.90
13229;DHT22;6680;53.220;10.402;2022-08-20T02:09:12;17.20;99.90
13229;DHT22;6680;53.220;10.402;2022-08-20T02:11:39;17.20;99.90
13229;DHT22;6680;53.220;10.402;2022-08-20T02:14:09;17.20;99.90
13229;DHT22;6680;53.220;10.402;2022-08-20T02:16:39;17.20;99.90
13229;DHT22;6680;53.220;10.402;2022-08-20T02:19:09;17.20;99.90
13229;DHT22;6680;53.220;10.402;2022-08-20T02:21:40;17.20;99.90
13229;DHT22;6680;53.220;10.402;2022-08-20T02:24:09;17.30;99.90
13229;DHT22;6680;53.220;10.402;2022-08-20T02:26:36;17.30;99.90
13229;DHT22;6680;53.220;10.402;2022-08-20T02:29:04;17.30;99.90
13229;DHT22;6680;53.220;10.402;2022-08-20T02:31:34;17.30;99.90
13229;DHT22;6680;53.220;10.402;2022-08-20T02:34:01;17.40;99.90
13229;DHT22;6680;53.220;10.402;2022-08-20T02:36:28;17.40;99.90
13229;DHT22;6680;53.220;10.402;2022-08-20T02:38:55;17.30;99.90
13229;DHT22;6680;53.220;10.402;2022-08-20T02:41:22;17.30;99.90
13229;DHT22;6680;53.220;10.402;2022-08-20T02:43:48;17.40;99.90
13229;DHT22;6680;53.220;10.402;2022-08-20T02:46:16;17.30;99.90
13229;DHT22;6680;53.220;10.402;2022-08-20T02:48:45;17.40;99.90
13229;DHT22;6680;53.220;10.402;2022-08-20T02:51:11;17.40;99.90
13229;DHT22;6680;53.220;10.402;2022-08-20T02:53:39;17.50;99.90
13229;DHT22;6680;53.220;10.402;2022-08-20T02:56:07;17.40;99.90
13229;DHT22;6680;53.220;10.402;2022-08-20T02:58:35;17.40;99.90
13229;DHT22;6680;53.220;10.402;2022-08-20T03:01:04;17.40;99.90
13229;DHT22;6680;53.220;10.402;2022-08-20T03:03:32;17.40;99.90
13229;DHT22;6680;53.220;10.402;2022-08-20T03:06:00;17.40;99.90
13229;DHT22;6680;53.220;10.402;2022-08-20T03:08:27;17.40;99.90
13229;DHT22;6680;53.220;10.402;2022-08-20T03:10:55;17.40;99.90
13229;DHT22;6680;53.220;10.402;2022-08-20T03:13:22;17.40;99.90
13229;DHT22;6680;53.220;10.402;2022-08-20T03:15:53;17.30;99.90
13229;DHT22;6680;53.220;10.402;2022-08-20T03:18:23;17.40;99.90
13229;DHT22;6680;53.220;10.402;2022-08-20T03:20:50;17.40;99.90
13229;DHT22;6680;53.220;10.402;2022-08-20T03:23:19;17.40;99.90
13229;DHT22;6680;53.220;10.402;2022-08-20T03:25:47;17.40;99.90
13229;DHT22;6680;53.220;10.402;2022-08-20T03:28:14;17.40;99.90
13229;DHT22;6680;53.220;10.402;2022-08-20T03:30:41;17.40;99.90
13229;DHT22;6680;53.220;10.402;2022-08-20T03:33:08;17.40;99.90
13229;DHT22;6680;53.220;10.402;2022-08-20T03:35:36;17.50;99.90
13229;DHT22;6680;53.220;10.402;2022-08-20T03:38:06;17.40;99.90
13229;DHT22;6680;53.220;10.402;2022-08-20T03:40:34;17.50;99.90
13229;DHT22;6680;53.220;10.402;2022-08-20T03:43:02;17.40;99.90
13229;DHT22;6680;53.220;10.402;2022-08-20T03:45:29;17.40;99.90
13229;DHT22;6680;53.220;10.402;2022-08-20T03:47:57;17.30;99.90
13229;DHT22;6680;53.220;10.402;2022-08-20T03:50:26;17.30;99.90
13229;DHT22;6680;53.220;10.402;2022-08-20T03:52:54;17.30;99.90
13229;DHT22;6680;53.220;10.402;2022-08-20T03:55:23;17.30;99.90
13229;DHT22;6680;53.220;10.402;2022-08-20T03:57:53;17.30;99.90
13229;DHT22;6680;53.220;10.402;2022-08-20T04:00:25;17.30;99.90
13229;DHT22;6680;53.220;10.402;2022-08-20T04:02:53;17.30;99.90
13229;DHT22;6680;53.220;10.402;2022-08-20T04:05:22;17.40;99.90
13229;DHT22;6680;53.220;10.402;2022-08-20T04:07:49;17.40;99.90
13229;DHT22;6680;53.220;10.402;2022-08-20T04:10:16;17.40;99.90
13229;DHT22;6680;53.220;10.402;2022-08-20T04:12:42;17.40;99.90
13229;DHT22;6680;53.220;10.402;2022-08-20T04:15:12;17.40;99.90
13229;DHT22;6680;53.220;10.402;2022-08-20T04:17:44;17.40;99.90
13229;DHT22;6680;53.220;10.402;2022-08-20T04:20:14;17.50;99.90
13229;DHT22;6680;53.220;10.402;2022-08-20T04:22:42;17.50;99.90
13229;DHT22;6680;53.220;10.402;2022-08-20T04:25:12;17.50;99.90
13229;DHT22;6680;53.220;10.402;2022-08-20T04:27:39;17.50;99.90
13229;DHT22;6680;53.220;10.402;2022-08-20T04:30:10;17.50;99.90
13229;DHT22;6680;53.220;10.402;2022-08-20T04:32:37;17.50;99.90
13229;DHT22;6680;53.220;10.402;2022-08-20T04:35:05;17.50;99.90
13229;DHT22;6680;53.220;10.402;2022-08-20T04:37:32;17.50;99.90
13229;DHT22;6680;53.220;10.402;2022-08-20T04:40:02;17.50;99.90
13229;DHT22;6680;53.220;10.402;2022-08-20T04:42:47;17.50;99.90
13229;DHT22;6680;53.220;10.402;2022-08-20T04:45:15;17.60;99.90
13229;DHT22;6680;53.220;10.402;2022-08-20T04:47:43;17.50;99.90
13229;DHT22;6680;53.220;10.402;2022-08-20T04:50:11;17.50;99.90
13229;DHT22;6680;53.220;10.402;2022-08-20T04:52:38;17.50;99.90
13229;DHT22;6680;53.220;10.402;2022-08-20T04:55:05;17.60;99.90
13229;DHT22;6680;53.220;10.402;2022-08-20T04:57:33;17.60;99.90
13229;DHT22;6680;53.220;10.402;2022-08-20T05:00:02;17.60;99.90
13229;DHT22;6680;53.220;10.402;2022-08-20T05:02:30;17.60;99.90
13229;DHT22;6680;53.220;10.402;2022-08-20T05:04:57;17.60;99.90
13229;DHT22;6680;53.220;10.402;2022-08-20T05:07:24;17.70;99.90
13229;DHT22;6680;53.220;10.402;2022-08-20T05:09:50;17.70;99.90
13229;DHT22;6680;53.220;10.402;2022-08-20T05:12:17;17.70;99.90
13229;DHT22;6680;53.220;10.402;2022-08-20T05:14:44;17.70;99.90
13229;DHT22;6680;53.220;10.402;2022-08-20T05:17:11;17.70;99.90
13229;DHT22;6680;53.220;10.402;2022-08-20T05:19:40;17.70;99.90
13229;DHT22;6680;53.220;10.402;2022-08-20T05:22:07;17.80;99.90
13229;DHT22;6680;53.220;10.402;2022-08-20T05:24:33;17.80;99.90
13229;DHT22;6680;53.220;10.402;2022-08-20T05:27:00;17.80;99.90
13229;DHT22;6680;53.220;10.402;2022-08-20T05:29:27;17.80;99.90
13229;DHT22;6680;53.220;10.402;2022-08-20T05:31:54;17.80;99.90
13229;DHT22;6680;53.220;10.402;2022-08-20T05:34:21;17.80;99.90
13229;DHT22;6680;53.220;10.402;2022-08-20T05:36:51;17.90;99.90
13229;DHT22;6680;53.220;10.402;2022-08-20T05:39:19;17.90;99.90
13229;DHT22;6680;53.220;10.402;2022-08-20T05:41:47;17.90;99.90
13229;DHT22;6680;53.220;10.402;2022-08-20T05:44:14;18.00;99.90
13229;DHT22;6680;53.220;10.402;2022-08-20T05:46:42;18.00;99.90
13229;DHT22;6680;53.220;10.402;2022-08-20T05:49:11;18.00;99.90
13229;DHT22;6680;53.220;10.402;2022-08-20T05:51:38;18.10;99.90
13229;DHT22;6680;53.220;10.402;2022-08-20T05:54:07;18.10;99.90
13229;DHT22;6680;53.220;10.402;2022-08-20T05:56:34;18.20;99.90
13229;DHT22;6680;53.220;10.402;2022-08-20T05:59:02;18.30;99.90
13229;DHT22;6680;53.220;10.402;2022-08-20T06:01:30;18.40;99.90
13229;DHT22;6680;53.220;10.402;2022-08-20T06:03:57;18.50;99.90
13229;DHT22;6680;53.220;10.402;2022-08-20T06:06:42;18.60;99.90
13229;DHT22;6680;53.220;10.402;2022-08-20T06:09:10;18.80;99.90
13229;DHT22;6680;53.220;10.402;2022-08-20T06:11:36;18.90;99.90
13229;DHT22;6680;53.220;10.402;2022-08-20T06:14:03;18.90;99.90
13229;DHT22;6680;53.220;10.402;2022-08-20T06:16:30;19.00;99.90
13229;DHT22;6680;53.220;10.402;2022-08-20T06:18:57;19.00;99.90
13229;DHT22;6680;53.220;10.402;2022-08-20T06:21:24;19.00;99.90
13229;DHT22;6680;53.220;10.402;2022-08-20T06:23:51;19.10;99.90
13229;DHT22;6680;53.220;10.402;2022-08-20T06:26:19;19.10;99.90
13229;DHT22;6680;53.220;10.402;2022-08-20T06:28:45;19.10;99.90
13229;DHT22;6680;53.220;10.402;2022-08-20T06:31:12;19.10;99.90
13229;DHT22;6680;53.220;10.402;2022-08-20T06:33:39;19.20;99.90
13229;DHT22;6680;53.220;10.402;2022-08-20T06:36:06;19.20;99.90
13229;DHT22;6680;53.220;10.402;2022-08-20T06:38:33;19.20;99.90
13229;DHT22;6680;53.220;10.402;2022-08-20T06:41:00;19.10;99.90
13229;DHT22;6680;53.220;10.402;2022-08-20T06:43:28;19.10;99.90
13229;DHT22;6680;53.220;10.402;2022-08-20T06:45:55;19.10;99.90
13229;DHT22;6680;53.220;10.402;2022-08-20T06:48:23;19.10;99.90
13229;DHT22;6680;53.220;10.402;2022-08-20T06:50:49;19.10;99.90
13229;DHT22;6680;53.220;10.402;2022-08-20T06:53:19;19.10;99.90
13229;DHT22;6680;53.220;10.402;2022-08-20T06:55:48;19.10;99.90
13229;DHT22;6680;53.220;10.402;2022-08-20T06:58:15;19.20;99.90
13229;DHT22;6680;53.220;10.402;2022-08-20T07:00:44;19.20;99.90
13229;DHT22;6680;53.220;10.402;2022-08-20T07:03:10;19.30;99.90
13229;DHT22;6680;53.220;10.402;2022-08-20T07:05:39;19.30;99.90
13229;DHT22;6680;53.220;10.402;2022-08-20T07:08:08;19.40;99.90
13229;DHT22;6680;53.220;10.402;2022-08-20T07:10:34;19.40;99.90
13229;DHT22;6680;53.220;10.402;2022-08-20T07:13:01;19.50;99.90
13229;DHT22;6680;53.220;10.402;2022-08-20T07:15:27;19.60;99.90
13229;DHT22;6680;53.220;10.402;2022-08-20T07:17:57;19.60;99.90
13229;DHT22;6680;53.220;10.402;2022-08-20T07:20:25;19.70;99.90
13229;DHT22;6680;53.220;10.402;2022-08-20T07:22:52;19.80;99.90
13229;DHT22;6680;53.220;10.402;2022-08-20T07:25:20;19.90;99.90
13229;DHT22;6680;53.220;10.402;2022-08-20T07:27:48;20.00;99.90
13229;DHT22;6680;53.220;10.402;2022-08-20T07:30:18;20.10;99.90
13229;DHT22;6680;53.220;10.402;2022-08-20T07:33:03;20.30;99.90
13229;DHT22;6680;53.220;10.402;2022-08-20T07:35:30;20.40;99.90
13229;DHT22;6680;53.220;10.402;2022-08-20T07:37:56;20.60;99.90
13229;DHT22;6680;53.220;10.402;2022-08-20T07:40:26;20.80;99.90
13229;DHT22;6680;53.220;10.402;2022-08-20T07:42:53;20.80;99.90
13229;DHT22;6680;53.220;10.402;2022-08-20T07:45:20;20.90;99.90
13229;DHT22;6680;53.220;10.402;2022-08-20T07:47:48;20.90;99.90
13229;DHT22;6680;53.220;10.402;2022-08-20T07:50:23;21.00;99.90
13229;DHT22;6680;53.220;10.402;2022-08-20T07:52:50;21.10;99.90
13229;DHT22;6680;53.220;10.402;2022-08-20T07:55:18;21.10;99.90
13229;DHT22;6680;53.220;10.402;2022-08-20T07:57:47;21.10;99.90
13229;DHT22;6680;53.220;10.402;2022-08-20T08:00:16;21.00;99.90
13229;DHT22;6680;53.220;10.402;2022-08-20T08:02:43;21.00;99.90
13229;DHT22;6680;53.220;10.402;2022-08-20T08:05:09;21.10;99.90
13229;DHT22;6680;53.220;10.402;2022-08-20T08:07:38;21.20;99.90
13229;DHT22;6680;53.220;10.402;2022-08-20T08:10:08;21.30;99.90
13229;DHT22;6680;53.220;10.402;2022-08-20T08:12:39;21.30;99.90
13229;DHT22;6680;53.220;10.402;2022-08-20T08:15:12;21.40;99.90
13229;DHT22;6680;53.220;10.402;2022-08-20T08:17:39;21.60;99.90
13229;DHT22;6680;53.220;10.402;2022-08-20T08:20:07;21.80;99.90
13229;DHT22;6680;53.220;10.402;2022-08-20T08:22:38;21.90;99.90
13229;DHT22;6680;53.220;10.402;2022-08-20T08:25:08;21.90;99.90
13229;DHT22;6680;53.220;10.402;2022-08-20T08:27:35;22.00;99.90
13229;DHT22;6680;53.220;10.402;2022-08-20T08:30:03;22.10;99.90
13229;DHT22;6680;53.220;10.402;2022-08-20T08:32:30;22.10;99.90
13229;DHT22;6680;53.220;10.402;2022-08-20T08:34:57;22.00;99.90
13229;DHT22;6680;53.220;10.402;2022-08-20T08:37:24;22.10;99.90
13229;DHT22;6680;53.220;10.402;2022-08-20T08:39:52;22.20;99.90
13229;DHT22;6680;53.220;10.402;2022-08-20T08:42:23;22.60;99.90
13229;DHT22;6680;53.220;10.402;2022-08-20T08:44:51;22.50;99.90
13229;DHT22;6680;53.220;10.402;2022-08-20T08:47:28;22.70;99.90
13229;DHT22;6680;53.220;10.402;2022-08-20T08:49:56;22.80;99.90
13229;DHT22;6680;53.220;10.402;2022-08-20T08:52:26;22.80;99.90
13229;DHT22;6680;53.220;10.402;2022-08-20T08:54:58;22.80;99.90
13229;DHT22;6680;53.220;10.402;2022-08-20T08:57:26;22.70;99.90
13229;DHT22;6680;53.220;10.402;2022-08-20T08:59:57;22.80;99.90
13229;DHT22;6680;53.220;10.402;2022-08-20T09:02:25;23.10;99.90
13229;DHT22;6680;53.220;10.402;2022-08-20T09:04:53;23.10;99.90
13229;DHT22;6680;53.220;10.402;2022-08-20T09:07:22;23.20;99.90
13229;DHT22;6680;53.220;10.402;2022-08-20T09:09:50;23.30;99.90
13229;DHT22;6680;53.220;10.402;2022-08-20T09:12:21;23.30;99.90
13229;DHT22;6680;53.220;10.402;2022-08-20T09:14:50;23.30;99.90
13229;DHT22;6680;53.220;10.402;2022-08-20T09:17:19;23.20;99.90
13229;DHT22;6680;53.220;10.402;2022-08-20T09:19:47;23.20;99.90
13229;DHT22;6680;53.220;10.402;2022-08-20T09:22:17;23.20;99.90
13229;DHT22;6680;53.220;10.402;2022-08-20T09:24:44;23.00;99.90
13229;DHT22;6680;53.220;10.402;2022-08-20T09:27:12;23.10;99.90
13229;DHT22;6680;53.220;10.402;2022-08-20T09:29:40;23.20;99.90
13229;DHT22;6680;53.220;10.402;2022-08-20T09:32:10;23.30;99.90
13229;DHT22;6680;53.220;10.402;2022-08-20T09:34:38;23.40;99.90
13229;DHT22;6680;53.220;10.402;2022-08-20T09:37:05;23.60;99.90
13229;DHT22;6680;53.220;10.402;2022-08-20T09:39:32;23.50;99.90
13229;DHT22;6680;53.220;10.402;2022-08-20T09:42:06;23.70;99.90
13229;DHT22;6680;53.220;10.402;2022-08-20T09:44:33;23.70;99.90
13229;DHT22;6680;53.220;10.402;2022-08-20T09:47:02;23.80;99.90
13229;DHT22;6680;53.220;10.402;2022-08-20T09:49:29;23.90;99.90
13229;DHT22;6680;53.220;10.402;2022-08-20T09:51:55;24.00;99.90
13229;DHT22;6680;53.220;10.402;2022-08-20T09:54:23;24.10;99.90
13229;DHT22;6680;53.220;10.402;2022-08-20T09:56:52;24.00;99.90
13229;DHT22;6680;53.220;10.402;2022-08-20T09:59:19;23.80;99.90
13229;DHT22;6680;53.220;10.402;2022-08-20T10:04:14;23.70;99.90
13229;DHT22;6680;53.220;10.402;2022-08-20T10:06:41;23.70;99.90
13229;DHT22;6680;53.220;10.402;2022-08-20T10:09:07;23.70;99.90
13229;DHT22;6680;53.220;10.402;2022-08-20T10:11:34;23.50;99.90
13229;DHT22;6680;53.220;10.402;2022-08-20T10:14:01;23.60;99.90
13229;DHT22;6680;53.220;10.402;2022-08-20T10:16:27;23.60;99.90
13229;DHT22;6680;53.220;10.402;2022-08-20T10:18:55;23.70;99.90
13229;DHT22;6680;53.220;10.402;2022-08-20T10:21:23;23.70;99.90
13229;DHT22;6680;53.220;10.402;2022-08-20T10:23:49;23.80;99.90
13229;DHT22;6680;53.220;10.402;2022-08-20T10:26:16;23.90;99.90
13229;DHT22;6680;53.220;10.402;2022-08-20T10:28:43;23.90;99.90
13229;DHT22;6680;53.220;10.402;2022-08-20T10:31:11;24.10;99.90
13229;DHT22;6680;53.220;10.402;2022-08-20T10:33:39;24.10;99.90
13229;DHT22;6680;53.220;10.402;2022-08-20T10:36:07;24.10;99.90
13229;DHT22;6680;53.220;10.402;2022-08-20T10:38:35;24.10;99.90
13229;DHT22;6680;53.220;10.402;2022-08-20T10:41:02;24.30;99.90
13229;DHT22;6680;53.220;10.402;2022-08-20T10:43:28;24.30;99.90
13229;DHT22;6680;53.220;10.402;2022-08-20T10:45:55;24.20;99.90
13229;DHT22;6680;53.220;10.402;2022-08-20T10:48:22;24.20;99.90
13229;DHT22;6680;53.220;10.402;2022-08-20T10:50:49;24.30;99.90
13229;DHT22;6680;53.220;10.402;2022-08-20T10:53:17;24.50;99.90
13229;DHT22;6680;53.220;10.402;2022-08-20T10:55:45;24.50;99.90
13229;DHT22;6680;53.220;10.402;2022-08-20T10:58:11;24.50;99.90
13229;DHT22;6680;53.220;10.402;2022-08-20T11:00:38;24.50;99.90
13229;DHT22;6680;53.220;10.402;2022-08-20T11:03:05;24.50;99.90
13229;DHT22;6680;53.220;10.402;2022-08-20T11:05:32;24.50;99.90
13229;DHT22;6680;53.220;10.402;2022-08-20T11:08:01;24.50;99.90
13229;DHT22;6680;53.220;10.402;2022-08-20T11:10:29;24.50;99.90
13229;DHT22;6680;53.220;10.402;2022-08-20T11:12:59;24.50;99.90
13229;DHT22;6680;53.220;10.402;2022-08-20T11:15:26;24.40;99.90
13229;DHT22;6680;53.220;10.402;2022-08-20T11:17:53;24.50;99.90
13229;DHT22;6680;53.220;10.402;2022-08-20T11:20:22;24.70;99.90
13229;DHT22;6680;53.220;10.402;2022-08-20T11:22:49;24.80;99.90
13229;DHT22;6680;53.220;10.402;2022-08-20T11:25:16;25.00;99.90
13229;DHT22;6680;53.220;10.402;2022-08-20T11:27:44;25.10;99.90
13229;DHT22;6680;53.220;10.402;2022-08-20T11:30:17;25.20;99.90
13229;DHT22;6680;53.220;10.402;2022-08-20T11:32:44;25.30;99.90
13229;DHT22;6680;53.220;10.402;2022-08-20T11:35:10;25.40;99.90
13229;DHT22;6680;53.220;10.402;2022-08-20T11:37:38;25.40;99.90
13229;DHT22;6680;53.220;10.402;2022-08-20T11:40:07;25.50;99.90
13229;DHT22;6680;53.220;10.402;2022-08-20T11:42:36;25.50;99.90
13229;DHT22;6680;53.220;10.402;2022-08-20T11:45:04;25.50;99.90
13229;DHT22;6680;53.220;10.402;2022-08-20T11:47:32;25.60;99.90
13229;DHT22;6680;53.220;10.402;2022-08-20T11:50:03;25.60;99.90
13229;DHT22;6680;53.220;10.402;2022-08-20T11:52:30;25.50;99.90
13229;DHT22;6680;53.220;10.402;2022-08-20T11:54:58;25.60;99.90
13229;DHT22;6680;53.220;10.402;2022-08-20T11:57:27;25.60;99.90
13229;DHT22;6680;53.220;10.402;2022-08-20T11:59:56;25.60;99.90
13229;DHT22;6680;53.220;10.402;2022-08-20T12:04:52;25.60;99.90
13229;DHT22;6680;53.220;10.402;2022-08-20T12:07:20;25.70;99.90
13229;DHT22;6680;53.220;10.402;2022-08-20T12:09:48;25.70;99.90
13229;DHT22;6680;53.220;10.402;2022-08-20T12:12:16;25.60;99.90
13229;DHT22;6680;53.220;10.402;2022-08-20T12:14:43;25.60;99.90
13229;DHT22;6680;53.220;10.402;2022-08-20T12:17:12;25.70;99.90
13229;DHT22;6680;53.220;10.402;2022-08-20T12:19:40;25.80;99.90
13229;DHT22;6680;53.220;10.402;2022-08-20T12:22:09;25.90;99.90
13229;DHT22;6680;53.220;10.402;2022-08-20T12:24:36;25.90;99.90
13229;DHT22;6680;53.220;10.402;2022-08-20T12:27:09;26.10;99.90
13229;DHT22;6680;53.220;10.402;2022-08-20T12:29:37;26.10;99.90
13229;DHT22;6680;53.220;10.402;2022-08-20T12:32:04;26.10;99.90
13229;DHT22;6680;53.220;10.402;2022-08-20T12:34:31;26.10;99.90
13229;DHT22;6680;53.220;10.402;2022-08-20T12:37:02;26.00;99.90
13229;DHT22;6680;53.220;10.402;2022-08-20T12:39:31;25.80;99.90
13229;DHT22;6680;53.220;10.402;2022-08-20T12:41:59;25.70;99.90
13229;DHT22;6680;53.220;10.402;2022-08-20T12:44:27;25.50;99.90
13229;DHT22;6680;53.220;10.402;2022-08-20T12:47:04;25.40;99.90
13229;DHT22;6680;53.220;10.402;2022-08-20T12:49:31;25.30;99.90
13229;DHT22;6680;53.220;10.402;2022-08-20T12:51:57;25.40;99.90
13229;DHT22;6680;53.220;10.402;2022-08-20T12:54:24;25.30;99.90
13229;DHT22;6680;53.220;10.402;2022-08-20T12:56:52;25.40;99.90
13229;DHT22;6680;53.220;10.402;2022-08-20T12:59:21;25.40;99.90
13229;DHT22;6680;53.220;10.402;2022-08-20T13:01:48;25.30;99.90
13229;DHT22;6680;53.220;10.402;2022-08-20T13:04:15;25.10;99.90
13229;DHT22;6680;53.220;10.402;2022-08-20T13:06:42;25.00;99.90
13229;DHT22;6680;53.220;10.402;2022-08-20T13:09:09;24.90;99.90
13229;DHT22;6680;53.220;10.402;2022-08-20T13:11:36;24.90;99.90
13229;DHT22;6680;53.220;10.402;2022-08-20T13:14:04;24.80;99.90
13229;DHT22;6680;53.220;10.402;2022-08-20T13:16:30;24.90;99.90
13229;DHT22;6680;53.220;10.402;2022-08-20T13:18:57;25.00;99.90
13229;DHT22;6680;53.220;10.402;2022-08-20T13:21:24;25.00;99.90
13229;DHT22;6680;53.220;10.402;2022-08-20T13:23:51;25.20;99.90
13229;DHT22;6680;53.220;10.402;2022-08-20T13:26:18;25.30;99.90
13229;DHT22;6680;53.220;10.402;2022-08-20T13:28:45;25.30;99.90
13229;DHT22;6680;53.220;10.402;2022-08-20T13:31:13;25.30;99.90
13229;DHT22;6680;53.220;10.402;2022-08-20T13:33:39;25.30;99.90
13229;DHT22;6680;53.220;10.402;2022-08-20T13:36:06;25.20;99.90
13229;DHT22;6680;53.220;10.402;2022-08-20T13:38:33;25.30;99.90
13229;DHT22;6680;53.220;10.402;2022-08-20T13:41:00;25.40;99.90
13229;DHT22;6680;53.220;10.402;2022-08-20T13:45:53;25.20;99.90
13229;DHT22;6680;53.220;10.402;2022-08-20T13:48:22;25.30;99.90
13229;DHT22;6680;53.220;10.402;2022-08-20T13:53:16;25.30;99.90
13229;DHT22;6680;53.220;10.402;2022-08-20T13:58:09;25.30;99.90
13229;DHT22;6680;53.220;10.402;2022-08-20T14:00:36;25.10;99.90
13229;DHT22;6680;53.220;10.402;2022-08-20T14:03:05;25.00;99.90
13229;DHT22;6680;53.220;10.402;2022-08-20T14:05:34;24.90;99.90
13229;DHT22;6680;53.220;10.402;2022-08-20T14:08:06;24.90;99.90
13229;DHT22;6680;53.220;10.402;2022-08-20T14:10:32;24.90;99.90
13229;DHT22;6680;53.220;10.402;2022-08-20T14:12:59;25.00;99.90
13229;DHT22;6680;53.220;10.402;2022-08-20T14:17:55;25.00;99.90
13229;DHT22;6680;53.220;10.402;2022-08-20T14:20:24;25.00;99.90
13229;DHT22;6680;53.220;10.402;2022-08-20T14:22:52;25.10;99.90
13229;DHT22;6680;53.220;10.402;2022-08-20T14:25:20;25.10;99.90
13229;DHT22;6680;53.220;10.402;2022-08-20T14:27:47;25.10;99.90
13229;DHT22;6680;53.220;10.402;2022-08-20T14:30:16;25.10;99.90
13229;DHT22;6680;53.220;10.402;2022-08-20T14:35:11;25.00;99.90
13229;DHT22;6680;53.220;10.402;2022-08-20T14:37:39;25.10;99.90
13229;DHT22;6680;53.220;10.402;2022-08-20T14:43:07;25.10;99.90
13229;DHT22;6680;53.220;10.402;2022-08-20T14:45:34;25.00;99.90
13229;DHT22;6680;53.220;10.402;2022-08-20T14:48:01;24.80;99.90
13229;DHT22;6680;53.220;10.402;2022-08-20T14:50:33;24.80;99.90
13229;DHT22;6680;53.220;10.402;2022-08-20T14:53:00;24.80;99.90
13229;DHT22;6680;53.220;10.402;2022-08-20T14:55:29;24.90;99.90
13229;DHT22;6680;53.220;10.402;2022-08-20T14:57:56;24.90;99.90
13229;DHT22;6680;53.220;10.402;2022-08-20T15:00:26;25.00;99.90
13229;DHT22;6680;53.220;10.402;2022-08-20T15:02:53;24.90;99.90
13229;DHT22;6680;53.220;10.402;2022-08-20T15:05:20;24.80;99.90
13229;DHT22;6680;53.220;10.402;2022-08-20T15:07:49;24.90;99.90
13229;DHT22;6680;53.220;10.402;2022-08-20T15:10:20;24.90;99.90
13229;DHT22;6680;53.220;10.402;2022-08-20T15:12:47;25.00;99.90
13229;DHT22;6680;53.220;10.402;2022-08-20T15:15:14;25.00;99.90
13229;DHT22;6680;53.220;10.402;2022-08-20T15:17:44;25.00;99.90
13229;DHT22;6680;53.220;10.402;2022-08-20T15:20:13;25.10;99.90
13229;DHT22;6680;53.220;10.402;2022-08-20T15:22:41;25.00;99.90
13229;DHT22;6680;53.220;10.402;2022-08-20T15:25:11;24.80;99.90
13229;DHT22;6680;53.220;10.402;2022-08-20T15:27:38;24.60;99.90
13229;DHT22;6680;53.220;10.402;2022-08-20T15:30:07;24.30;99.90
13229;DHT22;6680;53.220;10.402;2022-08-20T15:32:35;24.30;99.90
13229;DHT22;6680;53.220;10.402;2022-08-20T15:35:04;24.20;99.90
13229;DHT22;6680;53.220;10.402;2022-08-20T15:37:31;24.10;99.90
13229;DHT22;6680;53.220;10.402;2022-08-20T15:40:02;24.10;99.90
13229;DHT22;6680;53.220;10.402;2022-08-20T15:42:29;23.80;99.90
13229;DHT22;6680;53.220;10.402;2022-08-20T15:44:56;24.00;99.90
13229;DHT22;6680;53.220;10.402;2022-08-20T15:47:25;23.90;99.90
13229;DHT22;6680;53.220;10.402;2022-08-20T15:49:55;23.90;99.90
13229;DHT22;6680;53.220;10.402;2022-08-20T15:52:30;23.70;99.90
13229;DHT22;6680;53.220;10.402;2022-08-20T15:54:59;23.80;99.90
13229;DHT22;6680;53.220;10.402;2022-08-20T15:57:42;23.80;99.90